sensor_id;sensor_type;location;lat;lon;timestamp;temperature;humidity
6788;DHT22;3431;47.966;10.268;2022-10-16T00:00:16;13.20;99.90
6788;DHT22;3431;47.966;10.268;2022-10-16T00:00:39;13.20;99.90
6788;DHT22;3431;47.966;10.268;2022-10-16T00:01:08;13.20;99.90
6788;DHT22;3431;47.966;10.268;2022-10-16T00:01:30;13.20;99.90
6788;DHT22;3431;47.966;10.268;2022-10-16T00:01:53;13.20;99.90
6788;DHT22;3431;47.966;10.268;2022-10-16T00:02:15;13.20;99.90
6788;DHT22;3431;47.966;10.268;2022-10-16T00:02:36;13.20;99.90
6788;DHT22;3431;47.966;10.268;2022-10-16T00:02:58;13.20;99.90
6788;DHT22;3431;47.966;10.268;2022-10-16T00:03:21;13.20;99.90
6788;DHT22;3431;47.966;10.268;2022-10-16T00:03:44;13.20;99.90
6788;DHT22;3431;47.966;10.268;2022-10-16T00:04:06;13.20;99.90
6788;DHT22;3431;47.966;10.268;2022-10-16T00:04:28;13.20;99.90
6788;DHT22;3431;47.966;10.268;2022-10-16T00:04:50;13.20;99.90
6788;DHT22;3431;47.966;10.268;2022-10-16T00:05:12;13.20;99.90
6788;DHT22;3431;47.966;10.268;2022-10-16T00:05:38;13.20;99.90
6788;DHT22;3431;47.966;10.268;2022-10-16T00:06:00;13.20;99.90
6788;DHT22;3431;47.966;10.268;2022-10-16T00:06:24;13.20;99.90
6788;DHT22;3431;47.966;10.268;2022-10-16T00:06:46;13.20;99.90
6788;DHT22;3431;47.966;10.268;2022-10-16T00:07:07;13.20;99.90
6788;DHT22;3431;47.966;10.268;2022-10-16T00:07:29;13.20;99.90
6788;DHT22;3431;47.966;10.268;2022-10-16T00:07:51;13.20;99.90
6788;DHT22;3431;47.966;10.268;2022-10-16T00:08:13;13.20;99.90
6788;DHT22;3431;47.966;10.268;2022-10-16T00:08:35;13.20;99.90
6788;DHT22;3431;47.966;10.268;2022-10-16T00:08:57;13.20;99.90
6788;DHT22;3431;47.966;10.268;2022-10-16T00:09:20;13.20;99.90
6788;DHT22;3431;47.966;10.268;2022-10-16T00:09:42;13.20;99.90
6788;DHT22;3431;47.966;10.268;2022-10-16T00:10:04;13.20;99.90
6788;DHT22;3431;47.966;10.268;2022-10-16T00:10:25;13.20;99.90
6788;DHT22;3431;47.966;10.268;2022-10-16T00:10:47;13.20;99.90
6788;DHT22;3431;47.966;10.268;2022-10-16T00:11:11;13.20;99.90
6788;DHT22;3431;47.966;10.268;2022-10-16T00:11:35;13.10;99.90
6788;DHT22;3431;47.966;10.268;2022-10-16T00:11:57;13.20;99.90
6788;DHT22;3431;47.966;10.268;2022-10-16T00:12:20;13.10;99.90
6788;DHT22;3431;47.966;10.268;2022-10-16T00:12:41;13.10;99.90
6788;DHT22;3431;47.966;10.268;2022-10-16T00:13:04;13.20;99.90
6788;DHT22;3431;47.966;10.268;2022-10-16T00:13:25;13.10;99.90
6788;DHT22;3431;47.966;10.268;2022-10-16T00:13:49;13.10;99.90
6788;DHT22;3431;47.966;10.268;2022-10-16T00:14:14;13.10;99.90
6788;DHT22;3431;47.966;10.268;2022-10-16T00:14:36;13.10;99.90
6788;DHT22;3431;47.966;10.268;2022-10-16T00:14:57;13.20;99.90
6788;DHT22;3431;47.966;10.268;2022-10-16T00:15:20;13.10;99.90
6788;DHT22;3431;47.966;10.268;2022-10-16T00:15:43;13.10;99.90
6788;DHT22;3431;47.966;10.268;2022-10-16T00:16:05;13.10;99.90
6788;DHT22;3431;47.966;10.268;2022-10-16T00:16:28;13.10;99.90
6788;DHT22;3431;47.966;10.268;2022-10-16T00:16:50;13.10;99.90
6788;DHT22;3431;47.966;10.268;2022-10-16T00:17:12;13.10;99.90
6788;DHT22;3431;47.966;10.268;2022-10-16T00:17:34;13.10;99.90
6788;DHT22;3431;47.966;10.268;2022-10-16T00:17:55;13.10;99.90
6788;DHT22;3431;47.966;10.268;2022-10-16T00:18:17;13.10;99.90
6788;DHT22;3431;47.966;10.268;2022-10-16T00:18:39;13.10;99.90
6788;DHT22;3431;47.966;10.268;2022-10-16T00:19:01;13.10;99.90
6788;DHT22;3431;47.966;10.268;2022-10-16T00:19:23;13.10;99.90
6788;DHT22;3431;47.966;10.268;2022-10-16T00:19:45;13.10;99.90
6788;DHT22;3431;47.966;10.268;2022-10-16T00:20:25;13.10;99.90
6788;DHT22;3431;47.966;10.268;2022-10-16T00:21:07;13.10;99.90
6788;DHT22;3431;47.966;10.268;2022-10-16T00:21:47;13.00;99.90
6788;DHT22;3431;47.966;10.268;2022-10-16T00:22:27;13.00;99.90
6788;DHT22;3431;47.966;10.268;2022-10-16T00:22:49;13.00;99.90
6788;DHT22;3431;47.966;10.268;2022-10-16T00:23:10;13.00;99.90
6788;DHT22;3431;47.966;10.268;2022-10-16T00:23:33;13.00;99.90
6788;DHT22;3431;47.966;10.268;2022-10-16T00:23:57;13.00;99.90
6788;DHT22;3431;47.966;10.268;2022-10-16T00:24:20;13.00;99.90
6788;DHT22;3431;47.966;10.268;2022-10-16T00:24:41;13.00;99.90
6788;DHT22;3431;47.966;10.268;2022-10-16T00:25:03;13.00;99.90
6788;DHT22;3431;47.966;10.268;2022-10-16T00:25:26;13.00;99.90
6788;DHT22;3431;47.966;10.268;2022-10-16T00:25:55;12.90;99.90
6788;DHT22;3431;47.966;10.268;2022-10-16T00:26:18;12.90;99.90
6788;DHT22;3431;47.966;10.268;2022-10-16T00:26:40;12.90;99.90
6788;DHT22;3431;47.966;10.268;2022-10-16T00:27:03;12.90;99.90
6788;DHT22;3431;47.966;10.268;2022-10-16T00:27:24;12.90;99.90
6788;DHT22;3431;47.966;10.268;2022-10-16T00:27:46;12.90;99.90
6788;DHT22;3431;47.966;10.268;2022-10-16T00:28:08;12.90;99.90
6788;DHT22;3431;47.966;10.268;2022-10-16T00:28:30;12.90;99.90
6788;DHT22;3431;47.966;10.268;2022-10-16T00:28:52;12.90;99.90
6788;DHT22;3431;47.966;10.268;2022-10-16T00:29:14;12.90;99.90
6788;DHT22;3431;47.966;10.268;2022-10-16T00:29:36;12.90;99.90
6788;DHT22;3431;47.966;10.268;2022-10-16T00:29:57;12.80;99.90
6788;DHT22;3431;47.966;10.268;2022-10-16T00:30:21;12.90;99.90
6788;DHT22;3431;47.966;10.268;2022-10-16T00:30:42;12.80;99.90
6788;DHT22;3431;47.966;10.268;2022-10-16T00:31:05;12.80;99.90
6788;DHT22;3431;47.966;10.268;2022-10-16T00:31:27;12.80;99.90
6788;DHT22;3431;47.966;10.268;2022-10-16T00:31:50;12.90;99.90
6788;DHT22;3431;47.966;10.268;2022-10-16T00:32:11;12.90;99.90
6788;DHT22;3431;47.966;10.268;2022-10-16T00:32:33;12.80;99.90
6788;DHT22;3431;47.966;10.268;2022-10-16T00:32:54;12.80;99.90
6788;DHT22;3431;47.966;10.268;2022-10-16T00:33:17;12.80;99.90
6788;DHT22;3431;47.966;10.268;2022-10-16T00:33:39;12.80;99.90
6788;DHT22;3431;47.966;10.268;2022-10-16T00:34:01;12.80;99.90
6788;DHT22;3431;47.966;10.268;2022-10-16T00:34:24;12.90;99.90
6788;DHT22;3431;47.966;10.268;2022-10-16T00:34:45;12.80;99.90
6788;DHT22;3431;47.966;10.268;2022-10-16T00:35:07;12.80;99.90
6788;DHT22;3431;47.966;10.268;2022-10-16T00:35:30;12.80;99.90
6788;DHT22;3431;47.966;10.268;2022-10-16T00:35:52;12.80;99.90
6788;DHT22;3431;47.966;10.268;2022-10-16T00:36:16;12.80;99.90
6788;DHT22;3431;47.966;10.268;2022-10-16T00:36:38;12.80;99.90
6788;DHT22;3431;47.966;10.268;2022-10-16T00:36:59;12.80;99.90
6788;DHT22;3431;47.966;10.268;2022-10-16T00:37:22;12.80;99.90
6788;DHT22;3431;47.966;10.268;2022-10-16T00:37:44;12.80;99.90
6788;DHT22;3431;47.966;10.268;2022-10-16T00:38:05;12.80;99.90
6788;DHT22;3431;47.966;10.268;2022-10-16T00:38:27;12.80;99.90
6788;DHT22;3431;47.966;10.268;2022-10-16T00:38:50;12.80;99.90
6788;DHT22;3431;47.966;10.268;2022-10-16T00:39:15;12.80;99.90
6788;DHT22;3431;47.966;10.268;2022-10-16T00:39:37;12.80;99.90
6788;DHT22;3431;47.966;10.268;2022-10-16T00:39:58;12.80;99.90
6788;DHT22;3431;47.966;10.268;2022-10-16T00:40:20;12.80;99.90
6788;DHT22;3431;47.966;10.268;2022-10-16T00:40:42;12.80;99.90
6788;DHT22;3431;47.966;10.268;2022-10-16T00:41:05;12.80;99.90
6788;DHT22;3431;47.966;10.268;2022-10-16T00:41:27;12.70;99.90
6788;DHT22;3431;47.966;10.268;2022-10-16T00:41:49;12.80;99.90
6788;DHT22;3431;47.966;10.268;2022-10-16T00:42:14;12.80;99.90
6788;DHT22;3431;47.966;10.268;2022-10-16T00:42:36;12.70;99.90
6788;DHT22;3431;47.966;10.268;2022-10-16T00:42:58;12.80;99.90
6788;DHT22;3431;47.966;10.268;2022-10-16T00:43:38;12.80;99.90
6788;DHT22;3431;47.966;10.268;2022-10-16T00:44:02;12.70;99.90
6788;DHT22;3431;47.966;10.268;2022-10-16T00:44:46;12.70;99.90
6788;DHT22;3431;47.966;10.268;2022-10-16T00:45:09;12.80;99.90
6788;DHT22;3431;47.966;10.268;2022-10-16T00:45:33;12.70;99.90
6788;DHT22;3431;47.966;10.268;2022-10-16T00:45:54;12.80;99.90
6788;DHT22;3431;47.966;10.268;2022-10-16T00:46:18;12.70;99.90
6788;DHT22;3431;47.966;10.268;2022-10-16T00:46:41;12.70;99.90
6788;DHT22;3431;47.966;10.268;2022-10-16T00:47:04;12.70;99.90
6788;DHT22;3431;47.966;10.268;2022-10-16T00:47:28;12.80;99.90
6788;DHT22;3431;47.966;10.268;2022-10-16T00:47:52;12.70;99.90
6788;DHT22;3431;47.966;10.268;2022-10-16T00:48:15;12.70;99.90
6788;DHT22;3431;47.966;10.268;2022-10-16T00:48:37;12.70;99.90
6788;DHT22;3431;47.966;10.268;2022-10-16T00:49:01;12.70;99.90
6788;DHT22;3431;47.966;10.268;2022-10-16T00:49:24;12.80;99.90
6788;DHT22;3431;47.966;10.268;2022-10-16T00:49:47;12.70;99.90
6788;DHT22;3431;47.966;10.268;2022-10-16T00:50:15;12.70;99.90
6788;DHT22;3431;47.966;10.268;2022-10-16T00:50:37;12.70;99.90
6788;DHT22;3431;47.966;10.268;2022-10-16T00:51:01;12.70;99.90
6788;DHT22;3431;47.966;10.268;2022-10-16T00:51:28;12.70;99.90
6788;DHT22;3431;47.966;10.268;2022-10-16T00:51:53;12.70;99.90
6788;DHT22;3431;47.966;10.268;2022-10-16T00:52:15;12.70;99.90
6788;DHT22;3431;47.966;10.268;2022-10-16T00:52:37;12.70;99.90
6788;DHT22;3431;47.966;10.268;2022-10-16T00:53:02;12.70;99.90
6788;DHT22;3431;47.966;10.268;2022-10-16T00:53:25;12.70;99.90
6788;DHT22;3431;47.966;10.268;2022-10-16T00:53:46;12.70;99.90
6788;DHT22;3431;47.966;10.268;2022-10-16T00:54:11;12.70;99.90
6788;DHT22;3431;47.966;10.268;2022-10-16T00:54:34;12.70;99.90
6788;DHT22;3431;47.966;10.268;2022-10-16T00:54:56;12.70;99.90
6788;DHT22;3431;47.966;10.268;2022-10-16T00:55:19;12.70;99.90
6788;DHT22;3431;47.966;10.268;2022-10-16T00:55:40;12.70;99.90
6788;DHT22;3431;47.966;10.268;2022-10-16T00:56:03;12.70;99.90
6788;DHT22;3431;47.966;10.268;2022-10-16T00:56:26;12.70;99.90
6788;DHT22;3431;47.966;10.268;2022-10-16T00:56:48;12.70;99.90
6788;DHT22;3431;47.966;10.268;2022-10-16T00:57:10;12.70;99.90
6788;DHT22;3431;47.966;10.268;2022-10-16T00:57:32;12.70;99.90
6788;DHT22;3431;47.966;10.268;2022-10-16T00:57:54;12.80;99.90
6788;DHT22;3431;47.966;10.268;2022-10-16T00:58:16;12.70;99.90
6788;DHT22;3431;47.966;10.268;2022-10-16T00:58:38;12.80;99.90
6788;DHT22;3431;47.966;10.268;2022-10-16T00:59:01;12.80;99.90
6788;DHT22;3431;47.966;10.268;2022-10-16T00:59:27;12.70;99.90
6788;DHT22;3431;47.966;10.268;2022-10-16T00:59:49;12.80;99.90
6788;DHT22;3431;47.966;10.268;2022-10-16T01:00:16;12.80;99.90
6788;DHT22;3431;47.966;10.268;2022-10-16T01:00:40;12.80;99.90
6788;DHT22;3431;47.966;10.268;2022-10-16T01:01:02;12.80;99.90
6788;DHT22;3431;47.966;10.268;2022-10-16T01:01:24;12.70;99.90
6788;DHT22;3431;47.966;10.268;2022-10-16T01:01:46;12.70;99.90
6788;DHT22;3431;47.966;10.268;2022-10-16T01:02:11;12.70;99.90
6788;DHT22;3431;47.966;10.268;2022-10-16T01:02:34;12.70;99.90
6788;DHT22;3431;47.966;10.268;2022-10-16T01:02:57;12.80;99.90
6788;DHT22;3431;47.966;10.268;2022-10-16T01:03:25;12.80;99.90
6788;DHT22;3431;47.966;10.268;2022-10-16T01:03:47;12.80;99.90
6788;DHT22;3431;47.966;10.268;2022-10-16T01:04:09;12.80;99.90
6788;DHT22;3431;47.966;10.268;2022-10-16T01:04:34;12.80;99.90
6788;DHT22;3431;47.966;10.268;2022-10-16T01:04:56;12.80;99.90
6788;DHT22;3431;47.966;10.268;2022-10-16T01:05:18;12.80;99.90
6788;DHT22;3431;47.966;10.268;2022-10-16T01:05:45;12.80;99.90
6788;DHT22;3431;47.966;10.268;2022-10-16T01:06:21;12.80;99.90
6788;DHT22;3431;47.966;10.268;2022-10-16T01:06:50;12.80;99.90
6788;DHT22;3431;47.966;10.268;2022-10-16T01:07:24;12.80;99.90
6788;DHT22;3431;47.966;10.268;2022-10-16T01:07:53;12.80;99.90
6788;DHT22;3431;47.966;10.268;2022-10-16T01:08:21;12.80;99.90
6788;DHT22;3431;47.966;10.268;2022-10-16T01:08:52;12.80;99.90
6788;DHT22;3431;47.966;10.268;2022-10-16T01:09:19;12.80;99.90
6788;DHT22;3431;47.966;10.268;2022-10-16T01:09:52;12.80;99.90
6788;DHT22;3431;47.966;10.268;2022-10-16T01:10:22;12.80;99.90
6788;DHT22;3431;47.966;10.268;2022-10-16T01:10:54;12.80;99.90
6788;DHT22;3431;47.966;10.268;2022-10-16T01:11:23;12.80;99.90
6788;DHT22;3431;47.966;10.268;2022-10-16T01:11:54;12.80;99.90
6788;DHT22;3431;47.966;10.268;2022-10-16T01:12:26;12.80;99.90
6788;DHT22;3431;47.966;10.268;2022-10-16T01:12:57;12.80;99.90
6788;DHT22;3431;47.966;10.268;2022-10-16T01:13:23;12.80;99.90
6788;DHT22;3431;47.966;10.268;2022-10-16T01:13:50;12.80;99.90
6788;DHT22;3431;47.966;10.268;2022-10-16T01:14:19;12.90;99.90
6788;DHT22;3431;47.966;10.268;2022-10-16T01:14:47;12.90;99.90
6788;DHT22;3431;47.966;10.268;2022-10-16T01:15:19;12.80;99.90
6788;DHT22;3431;47.966;10.268;2022-10-16T01:15:48;12.90;99.90
6788;DHT22;3431;47.966;10.268;2022-10-16T01:16:18;12.90;99.90
6788;DHT22;3431;47.966;10.268;2022-10-16T01:16:45;12.90;99.90
6788;DHT22;3431;47.966;10.268;2022-10-16T01:17:12;12.90;99.90
6788;DHT22;3431;47.966;10.268;2022-10-16T01:17:43;12.90;99.90
6788;DHT22;3431;47.966;10.268;2022-10-16T01:18:10;12.90;99.90
6788;DHT22;3431;47.966;10.268;2022-10-16T01:18:36;12.90;99.90
6788;DHT22;3431;47.966;10.268;2022-10-16T01:19:05;12.90;99.90
6788;DHT22;3431;47.966;10.268;2022-10-16T01:19:40;12.90;99.90
6788;DHT22;3431;47.966;10.268;2022-10-16T01:20:14;13.00;99.90
6788;DHT22;3431;47.966;10.268;2022-10-16T01:20:44;13.00;99.90
6788;DHT22;3431;47.966;10.268;2022-10-16T01:21:10;13.00;99.90
6788;DHT22;3431;47.966;10.268;2022-10-16T01:21:37;13.00;99.90
6788;DHT22;3431;47.966;10.268;2022-10-16T01:22:01;12.90;99.90
6788;DHT22;3431;47.966;10.268;2022-10-16T01:22:26;13.00;99.90
6788;DHT22;3431;47.966;10.268;2022-10-16T01:23:04;12.90;99.90
6788;DHT22;3431;47.966;10.268;2022-10-16T01:23:36;12.90;99.90
6788;DHT22;3431;47.966;10.268;2022-10-16T01:24:14;12.90;99.90
6788;DHT22;3431;47.966;10.268;2022-10-16T01:24:40;12.80;99.90
6788;DHT22;3431;47.966;10.268;2022-10-16T01:25:04;12.90;99.90
6788;DHT22;3431;47.966;10.268;2022-10-16T01:25:39;12.90;99.90
6788;DHT22;3431;47.966;10.268;2022-10-16T01:26:20;12.80;99.90
6788;DHT22;3431;47.966;10.268;2022-10-16T01:27:07;12.80;99.90
6788;DHT22;3431;47.966;10.268;2022-10-16T01:27:32;12.80;99.90
6788;DHT22;3431;47.966;10.268;2022-10-16T01:27:57;12.80;99.90
6788;DHT22;3431;47.966;10.268;2022-10-16T01:28:22;12.80;99.90
6788;DHT22;3431;47.966;10.268;2022-10-16T01:28:49;12.80;99.90
6788;DHT22;3431;47.966;10.268;2022-10-16T01:29:16;12.80;99.90
6788;DHT22;3431;47.966;10.268;2022-10-16T01:29:46;12.10;99.90
6788;DHT22;3431;47.966;10.268;2022-10-16T01:30:15;12.80;99.90
6788;DHT22;3431;47.966;10.268;2022-10-16T01:30:40;12.80;99.90
6788;DHT22;3431;47.966;10.268;2022-10-16T01:31:03;12.80;99.90
6788;DHT22;3431;47.966;10.268;2022-10-16T01:31:28;12.80;99.90
6788;DHT22;3431;47.966;10.268;2022-10-16T01:31:56;12.80;99.90
6788;DHT22;3431;47.966;10.268;2022-10-16T01:32:23;12.80;99.90
6788;DHT22;3431;47.966;10.268;2022-10-16T01:32:50;12.80;99.90
6788;DHT22;3431;47.966;10.268;2022-10-16T01:33:18;12.80;99.90
6788;DHT22;3431;47.966;10.268;2022-10-16T01:33:43;12.80;99.90
6788;DHT22;3431;47.966;10.268;2022-10-16T01:34:10;12.80;99.90
6788;DHT22;3431;47.966;10.268;2022-10-16T01:34:38;12.80;99.90
6788;DHT22;3431;47.966;10.268;2022-10-16T01:35:04;12.80;99.90
6788;DHT22;3431;47.966;10.268;2022-10-16T01:35:33;12.80;99.90
6788;DHT22;3431;47.966;10.268;2022-10-16T01:36:03;12.80;99.90
6788;DHT22;3431;47.966;10.268;2022-10-16T01:36:33;12.80;99.90
6788;DHT22;3431;47.966;10.268;2022-10-16T01:37:01;12.80;99.90
6788;DHT22;3431;47.966;10.268;2022-10-16T01:37:31;12.80;99.90
6788;DHT22;3431;47.966;10.268;2022-10-16T01:37:57;12.80;99.90
6788;DHT22;3431;47.966;10.268;2022-10-16T01:38:25;12.80;99.90
6788;DHT22;3431;47.966;10.268;2022-10-16T01:38:51;12.80;99.90
6788;DHT22;3431;47.966;10.268;2022-10-16T01:39:15;12.80;99.90
6788;DHT22;3431;47.966;10.268;2022-10-16T01:39:41;12.80;99.90
6788;DHT22;3431;47.966;10.268;2022-10-16T01:40:07;12.80;99.90
6788;DHT22;3431;47.966;10.268;2022-10-16T01:40:32;12.80;99.90
6788;DHT22;3431;47.966;10.268;2022-10-16T01:41:03;12.80;99.90
6788;DHT22;3431;47.966;10.268;2022-10-16T01:41:32;12.90;99.90
6788;DHT22;3431;47.966;10.268;2022-10-16T01:41:59;12.90;99.90
6788;DHT22;3431;47.966;10.268;2022-10-16T01:42:27;12.90;99.90
6788;DHT22;3431;47.966;10.268;2022-10-16T01:42:52;12.90;99.90
6788;DHT22;3431;47.966;10.268;2022-10-16T01:43:21;12.90;99.90
6788;DHT22;3431;47.966;10.268;2022-10-16T01:43:47;13.00;99.90
6788;DHT22;3431;47.966;10.268;2022-10-16T01:44:13;13.00;99.90
6788;DHT22;3431;47.966;10.268;2022-10-16T01:44:36;13.00;99.90
6788;DHT22;3431;47.966;10.268;2022-10-16T01:45:00;13.00;99.90
6788;DHT22;3431;47.966;10.268;2022-10-16T01:45:22;13.00;99.90
6788;DHT22;3431;47.966;10.268;2022-10-16T01:45:45;13.00;99.90
6788;DHT22;3431;47.966;10.268;2022-10-16T01:46:08;13.00;99.90
6788;DHT22;3431;47.966;10.268;2022-10-16T01:46:35;13.00;99.90
6788;DHT22;3431;47.966;10.268;2022-10-16T01:46:57;13.00;99.90
6788;DHT22;3431;47.966;10.268;2022-10-16T01:47:22;13.00;99.90
6788;DHT22;3431;47.966;10.268;2022-10-16T01:47:45;13.00;99.90
6788;DHT22;3431;47.966;10.268;2022-10-16T01:48:11;13.00;99.90
6788;DHT22;3431;47.966;10.268;2022-10-16T01:48:34;13.00;99.90
6788;DHT22;3431;47.966;10.268;2022-10-16T01:48:57;13.00;99.90
6788;DHT22;3431;47.966;10.268;2022-10-16T01:49:21;13.00;99.90
6788;DHT22;3431;47.966;10.268;2022-10-16T01:49:44;13.00;99.90
6788;DHT22;3431;47.966;10.268;2022-10-16T01:50:08;13.00;99.90
6788;DHT22;3431;47.966;10.268;2022-10-16T01:50:31;13.00;99.90
6788;DHT22;3431;47.966;10.268;2022-10-16T01:50:59;13.00;99.90
6788;DHT22;3431;47.966;10.268;2022-10-16T01:51:22;13.00;99.90
6788;DHT22;3431;47.966;10.268;2022-10-16T01:51:48;12.90;99.90
6788;DHT22;3431;47.966;10.268;2022-10-16T01:52:14;13.00;99.90
6788;DHT22;3431;47.966;10.268;2022-10-16T01:52:39;13.00;99.90
6788;DHT22;3431;47.966;10.268;2022-10-16T01:53:03;13.00;99.90
6788;DHT22;3431;47.966;10.268;2022-10-16T01:53:26;13.00;99.90
6788;DHT22;3431;47.966;10.268;2022-10-16T01:53:53;13.00;99.90
6788;DHT22;3431;47.966;10.268;2022-10-16T01:54:18;13.00;99.90
6788;DHT22;3431;47.966;10.268;2022-10-16T01:54:43;13.00;99.90
6788;DHT22;3431;47.966;10.268;2022-10-16T01:55:08;13.00;99.90
6788;DHT22;3431;47.966;10.268;2022-10-16T01:55:35;13.00;99.90
6788;DHT22;3431;47.966;10.268;2022-10-16T01:55:58;13.00;99.90
6788;DHT22;3431;47.966;10.268;2022-10-16T01:56:22;13.00;99.90
6788;DHT22;3431;47.966;10.268;2022-10-16T01:56:46;13.00;99.90
6788;DHT22;3431;47.966;10.268;2022-10-16T01:57:10;13.00;99.90
6788;DHT22;3431;47.966;10.268;2022-10-16T01:57:39;13.00;99.90
6788;DHT22;3431;47.966;10.268;2022-10-16T01:58:05;13.00;99.90
6788;DHT22;3431;47.966;10.268;2022-10-16T01:58:29;13.00;99.90
6788;DHT22;3431;47.966;10.268;2022-10-16T01:58:58;13.00;99.90
6788;DHT22;3431;47.966;10.268;2022-10-16T01:59:25;13.00;99.90
6788;DHT22;3431;47.966;10.268;2022-10-16T01:59:52;13.00;99.90
6788;DHT22;3431;47.966;10.268;2022-10-16T02:00:17;13.00;99.90
6788;DHT22;3431;47.966;10.268;2022-10-16T02:00:44;13.00;99.90
6788;DHT22;3431;47.966;10.268;2022-10-16T02:01:09;13.00;99.90
6788;DHT22;3431;47.966;10.268;2022-10-16T02:01:35;13.00;99.90
6788;DHT22;3431;47.966;10.268;2022-10-16T02:02:00;13.00;99.90
6788;DHT22;3431;47.966;10.268;2022-10-16T02:02:22;13.00;99.90
6788;DHT22;3431;47.966;10.268;2022-10-16T02:02:49;13.00;99.90
6788;DHT22;3431;47.966;10.268;2022-10-16T02:03:16;13.00;99.90
6788;DHT22;3431;47.966;10.268;2022-10-16T02:03:40;12.90;99.90
6788;DHT22;3431;47.966;10.268;2022-10-16T02:04:09;12.90;99.90
6788;DHT22;3431;47.966;10.268;2022-10-16T02:04:36;12.90;99.90
6788;DHT22;3431;47.966;10.268;2022-10-16T02:05:04;12.90;99.90
6788;DHT22;3431;47.966;10.268;2022-10-16T02:05:29;12.90;99.90
6788;DHT22;3431;47.966;10.268;2022-10-16T02:05:54;12.90;99.90
6788;DHT22;3431;47.966;10.268;2022-10-16T02:06:16;12.90;99.90
6788;DHT22;3431;47.966;10.268;2022-10-16T02:06:39;12.90;99.90
6788;DHT22;3431;47.966;10.268;2022-10-16T02:07:00;12.90;99.90
6788;DHT22;3431;47.966;10.268;2022-10-16T02:07:22;12.90;99.90
6788;DHT22;3431;47.966;10.268;2022-10-16T02:07:44;12.90;99.90
6788;DHT22;3431;47.966;10.268;2022-10-16T02:08:07;12.90;99.90
6788;DHT22;3431;47.966;10.268;2022-10-16T02:08:29;12.90;99.90
6788;DHT22;3431;47.966;10.268;2022-10-16T02:08:51;12.90;99.90
6788;DHT22;3431;47.966;10.268;2022-10-16T02:09:14;12.90;99.90
6788;DHT22;3431;47.966;10.268;2022-10-16T02:09:38;12.90;99.90
6788;DHT22;3431;47.966;10.268;2022-10-16T02:10:00;12.90;99.90
6788;DHT22;3431;47.966;10.268;2022-10-16T02:10:23;12.90;99.90
6788;DHT22;3431;47.966;10.268;2022-10-16T02:10:45;12.90;99.90
6788;DHT22;3431;47.966;10.268;2022-10-16T02:11:07;12.90;99.90
6788;DHT22;3431;47.966;10.268;2022-10-16T02:11:29;12.90;99.90
6788;DHT22;3431;47.966;10.268;2022-10-16T02:11:53;13.40;99.90
6788;DHT22;3431;47.966;10.268;2022-10-16T02:12:21;12.90;99.90
6788;DHT22;3431;47.966;10.268;2022-10-16T02:12:50;12.90;99.90
6788;DHT22;3431;47.966;10.268;2022-10-16T02:13:17;12.90;99.90
6788;DHT22;3431;47.966;10.268;2022-10-16T02:13:45;12.90;99.90
6788;DHT22;3431;47.966;10.268;2022-10-16T02:14:08;13.00;99.90
6788;DHT22;3431;47.966;10.268;2022-10-16T02:14:30;13.00;99.90
6788;DHT22;3431;47.966;10.268;2022-10-16T02:14:52;13.00;99.90
6788;DHT22;3431;47.966;10.268;2022-10-16T02:15:14;13.00;99.90
6788;DHT22;3431;47.966;10.268;2022-10-16T02:15:37;13.00;99.90
6788;DHT22;3431;47.966;10.268;2022-10-16T02:15:59;13.00;99.90
6788;DHT22;3431;47.966;10.268;2022-10-16T02:16:20;13.00;99.90
6788;DHT22;3431;47.966;10.268;2022-10-16T02:16:43;13.00;99.90
6788;DHT22;3431;47.966;10.268;2022-10-16T02:17:11;13.00;99.90
6788;DHT22;3431;47.966;10.268;2022-10-16T02:17:35;13.00;99.90
6788;DHT22;3431;47.966;10.268;2022-10-16T02:17:56;13.00;99.90
6788;DHT22;3431;47.966;10.268;2022-10-16T02:18:18;12.90;99.90
6788;DHT22;3431;47.966;10.268;2022-10-16T02:18:42;12.90;99.90
6788;DHT22;3431;47.966;10.268;2022-10-16T02:19:06;12.90;99.90
6788;DHT22;3431;47.966;10.268;2022-10-16T02:19:28;13.00;99.90
6788;DHT22;3431;47.966;10.268;2022-10-16T02:19:52;12.90;99.90
6788;DHT22;3431;47.966;10.268;2022-10-16T02:20:14;12.90;99.90
6788;DHT22;3431;47.966;10.268;2022-10-16T02:20:43;12.90;99.90
6788;DHT22;3431;47.966;10.268;2022-10-16T02:21:15;12.90;99.90
6788;DHT22;3431;47.966;10.268;2022-10-16T02:21:42;12.90;99.90
6788;DHT22;3431;47.966;10.268;2022-10-16T02:22:08;12.90;99.90
6788;DHT22;3431;47.966;10.268;2022-10-16T02:22:33;12.90;99.90
6788;DHT22;3431;47.966;10.268;2022-10-16T02:22:58;12.90;99.90
6788;DHT22;3431;47.966;10.268;2022-10-16T02:23:24;12.90;99.90
6788;DHT22;3431;47.966;10.268;2022-10-16T02:23:52;12.90;99.90
6788;DHT22;3431;47.966;10.268;2022-10-16T02:24:21;12.90;99.90
6788;DHT22;3431;47.966;10.268;2022-10-16T02:24:52;12.80;99.90
6788;DHT22;3431;47.966;10.268;2022-10-16T02:25:18;12.90;99.90
6788;DHT22;3431;47.966;10.268;2022-10-16T02:25:45;12.90;99.90
6788;DHT22;3431;47.966;10.268;2022-10-16T02:26:12;12.90;99.90
6788;DHT22;3431;47.966;10.268;2022-10-16T02:26:37;12.90;99.90
6788;DHT22;3431;47.966;10.268;2022-10-16T02:27:03;12.90;99.90
6788;DHT22;3431;47.966;10.268;2022-10-16T02:27:30;12.90;99.90
6788;DHT22;3431;47.966;10.268;2022-10-16T02:27:58;12.90;99.90
6788;DHT22;3431;47.966;10.268;2022-10-16T02:28:24;13.00;99.90
6788;DHT22;3431;47.966;10.268;2022-10-16T02:28:55;12.90;99.90
6788;DHT22;3431;47.966;10.268;2022-10-16T02:29:23;12.90;99.90
6788;DHT22;3431;47.966;10.268;2022-10-16T02:29:49;12.90;99.90
6788;DHT22;3431;47.966;10.268;2022-10-16T02:30:14;13.00;99.90
6788;DHT22;3431;47.966;10.268;2022-10-16T02:30:43;13.00;99.90
6788;DHT22;3431;47.966;10.268;2022-10-16T02:31:09;13.00;99.90
6788;DHT22;3431;47.966;10.268;2022-10-16T02:31:34;13.00;99.90
6788;DHT22;3431;47.966;10.268;2022-10-16T02:31:59;13.00;99.90
6788;DHT22;3431;47.966;10.268;2022-10-16T02:32:25;13.00;99.90
6788;DHT22;3431;47.966;10.268;2022-10-16T02:32:48;13.00;99.90
6788;DHT22;3431;47.966;10.268;2022-10-16T02:33:11;13.00;99.90
6788;DHT22;3431;47.966;10.268;2022-10-16T02:33:36;13.00;99.90
6788;DHT22;3431;47.966;10.268;2022-10-16T02:34:00;13.00;99.90
6788;DHT22;3431;47.966;10.268;2022-10-16T02:34:24;13.00;99.90
6788;DHT22;3431;47.966;10.268;2022-10-16T02:34:47;13.00;99.90
6788;DHT22;3431;47.966;10.268;2022-10-16T02:35:09;13.00;99.90
6788;DHT22;3431;47.966;10.268;2022-10-16T02:35:32;13.00;99.90
6788;DHT22;3431;47.966;10.268;2022-10-16T02:35:55;13.00;99.90
6788;DHT22;3431;47.966;10.268;2022-10-16T02:36:17;13.00;99.90
6788;DHT22;3431;47.966;10.268;2022-10-16T02:36:41;13.00;99.90
6788;DHT22;3431;47.966;10.268;2022-10-16T02:37:04;13.00;99.90
6788;DHT22;3431;47.966;10.268;2022-10-16T02:37:26;13.00;99.90
6788;DHT22;3431;47.966;10.268;2022-10-16T02:37:50;13.00;99.90
6788;DHT22;3431;47.966;10.268;2022-10-16T02:38:14;13.00;99.90
6788;DHT22;3431;47.966;10.268;2022-10-16T02:38:36;13.00;99.90
6788;DHT22;3431;47.966;10.268;2022-10-16T02:38:59;13.00;99.90
6788;DHT22;3431;47.966;10.268;2022-10-16T02:39:22;13.00;99.90
6788;DHT22;3431;47.966;10.268;2022-10-16T02:39:45;13.00;99.90
6788;DHT22;3431;47.966;10.268;2022-10-16T02:40:07;13.00;99.90